sensor_id;sensor_type;location;lat;lon;timestamp;P1;durP1;ratioP1;P2;durP2;ratioP2
43793;SDS011;29414;44.798;20.366;2023-11-21T00:01:28;84.17;;;57.80;;
43793;SDS011;29414;44.798;20.366;2023-11-21T00:05:28;76.30;;;53.70;;
43793;SDS011;29414;44.798;20.366;2023-11-21T00:09:29;78.23;;;55.20;;
43793;SDS011;29414;44.798;20.366;2023-11-21T00:13:29;73.57;;;52.87;;
43793;SDS011;29414;44.798;20.366;2023-11-21T00:17:29;77.77;;;55.40;;
43793;SDS011;29414;44.798;20.366;2023-11-21T00:21:29;72.07;;;54.57;;
43793;SDS011;29414;44.798;20.366;2023-11-21T00:25:30;92.57;;;66.87;;
43793;SDS011;29414;44.798;20.366;2023-11-21T00:29:31;96.63;;;67.30;;
43793;SDS011;29414;44.798;20.366;2023-11-21T00:33:31;103.57;;;78.57;;
43793;SDS011;29414;44.798;20.366;2023-11-21T00:37:32;113.07;;;77.90;;
43793;SDS011;29414;44.798;20.366;2023-11-21T00:41:32;123.97;;;93.27;;
43793;SDS011;29414;44.798;20.366;2023-11-21T00:45:32;125.13;;;91.27;;
43793;SDS011;29414;44.798;20.366;2023-11-21T00:49:32;120.65;;;84.93;;
43793;SDS011;29414;44.798;20.366;2023-11-21T00:53:33;106.47;;;75.40;;
43793;SDS011;29414;44.798;20.366;2023-11-21T00:57:33;99.20;;;70.97;;
43793;SDS011;29414;44.798;20.366;2023-11-21T01:01:34;104.73;;;69.53;;
43793;SDS011;29414;44.798;20.366;2023-11-21T01:05:34;84.77;;;64.57;;
43793;SDS011;29414;44.798;20.366;2023-11-21T01:09:35;83.73;;;60.77;;
43793;SDS011;29414;44.798;20.366;2023-11-21T01:13:35;86.43;;;61.87;;
43793;SDS011;29414;44.798;20.366;2023-11-21T01:17:35;86.77;;;64.07;;
43793;SDS011;29414;44.798;20.366;2023-11-21T01:21:36;99.30;;;73.17;;
43793;SDS011;29414;44.798;20.366;2023-11-21T01:25:36;109.27;;;77.27;;
43793;SDS011;29414;44.798;20.366;2023-11-21T01:29:37;91.60;;;68.57;;
43793;SDS011;29414;44.798;20.366;2023-11-21T01:33:37;78.27;;;59.20;;
43793;SDS011;29414;44.798;20.366;2023-11-21T01:37:38;88.70;;;64.97;;
43793;SDS011;29414;44.798;20.366;2023-11-21T01:41:38;86.47;;;64.57;;
43793;SDS011;29414;44.798;20.366;2023-11-21T01:45:39;87.50;;;66.95;;
43793;SDS011;29414;44.798;20.366;2023-11-21T01:49:39;88.60;;;65.97;;
43793;SDS011;29414;44.798;20.366;2023-11-21T01:53:39;85.10;;;63.40;;
43793;SDS011;29414;44.798;20.366;2023-11-21T01:57:40;92.20;;;69.33;;
43793;SDS011;29414;44.798;20.366;2023-11-21T02:01:40;92.43;;;68.03;;
43793;SDS011;29414;44.798;20.366;2023-11-21T02:05:41;84.83;;;65.97;;
43793;SDS011;29414;44.798;20.366;2023-11-21T02:09:41;92.23;;;67.83;;
43793;SDS011;29414;44.798;20.366;2023-11-21T02:13:42;95.13;;;68.40;;
43793;SDS011;29414;44.798;20.366;2023-11-21T02:17:47;87.93;;;66.80;;
43793;SDS011;29414;44.798;20.366;2023-11-21T02:21:51;85.87;;;65.03;;
43793;SDS011;29414;44.798;20.366;2023-11-21T02:25:52;83.23;;;59.37;;
43793;SDS011;29414;44.798;20.366;2023-11-21T02:29:52;95.70;;;64.83;;
43793;SDS011;29414;44.798;20.366;2023-11-21T02:33:52;91.40;;;65.67;;
43793;SDS011;29414;44.798;20.366;2023-11-21T02:37:53;82.28;;;61.85;;
43793;SDS011;29414;44.798;20.366;2023-11-21T02:41:53;89.73;;;67.93;;
43793;SDS011;29414;44.798;20.366;2023-11-21T02:45:53;89.40;;;68.07;;
43793;SDS011;29414;44.798;20.366;2023-11-21T02:49:54;97.17;;;71.00;;
43793;SDS011;29414;44.798;20.366;2023-11-21T02:53:54;87.30;;;66.83;;
43793;SDS011;29414;44.798;20.366;2023-11-21T02:57:54;100.40;;;67.27;;
43793;SDS011;29414;44.798;20.366;2023-11-21T03:01:56;91.10;;;69.07;;
43793;SDS011;29414;44.798;20.366;2023-11-21T03:05:57;84.33;;;63.83;;
43793;SDS011;29414;44.798;20.366;2023-11-21T03:09:57;92.87;;;68.63;;
43793;SDS011;29414;44.798;20.366;2023-11-21T03:13:57;92.87;;;67.17;;
43793;SDS011;29414;44.798;20.366;2023-11-21T03:17:58;96.95;;;72.63;;
43793;SDS011;29414;44.798;20.366;2023-11-21T03:21:58;106.33;;;74.33;;
43793;SDS011;29414;44.798;20.366;2023-11-21T03:25:58;99.67;;;74.17;;
43793;SDS011;29414;44.798;20.366;2023-11-21T03:30:00;92.43;;;66.00;;
43793;SDS011;29414;44.798;20.366;2023-11-21T03:34:01;79.93;;;56.73;;
43793;SDS011;29414;44.798;20.366;2023-11-21T03:38:01;84.07;;;58.10;;
43793;SDS011;29414;44.798;20.366;2023-11-21T03:42:01;86.90;;;63.40;;
43793;SDS011;29414;44.798;20.366;2023-11-21T03:46:02;73.80;;;53.47;;
43793;SDS011;29414;44.798;20.366;2023-11-21T03:50:02;69.80;;;50.30;;
43793;SDS011;29414;44.798;20.366;2023-11-21T03:54:03;61.73;;;45.53;;
43793;SDS011;29414;44.798;20.366;2023-11-21T03:58:04;67.33;;;49.27;;
43793;SDS011;29414;44.798;20.366;2023-11-21T04:02:04;67.30;;;49.53;;
43793;SDS011;29414;44.798;20.366;2023-11-21T04:06:05;64.10;;;47.07;;
43793;SDS011;29414;44.798;20.366;2023-11-21T04:10:06;64.13;;;50.43;;
43793;SDS011;29414;44.798;20.366;2023-11-21T04:14:08;62.87;;;47.33;;
43793;SDS011;29414;44.798;20.366;2023-11-21T04:18:09;71.70;;;51.00;;
43793;SDS011;29414;44.798;20.366;2023-11-21T04:22:09;73.03;;;49.93;;
43793;SDS011;29414;44.798;20.366;2023-11-21T04:26:09;71.40;;;51.63;;
43793;SDS011;29414;44.798;20.366;2023-11-21T04:30:10;68.37;;;51.50;;
43793;SDS011;29414;44.798;20.366;2023-11-21T04:34:10;68.17;;;52.00;;
43793;SDS011;29414;44.798;20.366;2023-11-21T04:38:11;65.40;;;49.53;;
43793;SDS011;29414;44.798;20.366;2023-11-21T04:42:11;67.53;;;51.57;;
43793;SDS011;29414;44.798;20.366;2023-11-21T04:46:12;64.97;;;50.97;;
43793;SDS011;29414;44.798;20.366;2023-11-21T04:50:12;70.40;;;50.27;;
43793;SDS011;29414;44.798;20.366;2023-11-21T04:54:13;58.70;;;45.63;;
43793;SDS011;29414;44.798;20.366;2023-11-21T04:58:13;59.83;;;42.13;;
43793;SDS011;29414;44.798;20.366;2023-11-21T05:02:14;51.50;;;39.73;;
43793;SDS011;29414;44.798;20.366;2023-11-21T05:06:14;49.23;;;39.47;;
43793;SDS011;29414;44.798;20.366;2023-11-21T05:10:14;48.60;;;38.23;;
43793;SDS011;29414;44.798;20.366;2023-11-21T05:14:15;50.97;;;38.50;;
43793;SDS011;29414;44.798;20.366;2023-11-21T05:18:15;52.30;;;37.17;;
43793;SDS011;29414;44.798;20.366;2023-11-21T05:22:15;45.60;;;34.70;;
43793;SDS011;29414;44.798;20.366;2023-11-21T05:26:15;49.23;;;36.20;;
43793;SDS011;29414;44.798;20.366;2023-11-21T05:30:16;41.90;;;32.40;;
43793;SDS011;29414;44.798;20.366;2023-11-21T05:34:16;41.03;;;31.57;;
43793;SDS011;29414;44.798;20.366;2023-11-21T05:38:16;44.33;;;29.77;;
43793;SDS011;29414;44.798;20.366;2023-11-21T05:42:17;37.17;;;28.20;;
43793;SDS011;29414;44.798;20.366;2023-11-21T05:46:17;32.30;;;27.10;;
43793;SDS011;29414;44.798;20.366;2023-11-21T05:50:18;31.77;;;24.20;;
43793;SDS011;29414;44.798;20.366;2023-11-21T05:54:18;30.97;;;21.13;;
43793;SDS011;29414;44.798;20.366;2023-11-21T05:58:18;35.78;;;21.50;;
43793;SDS011;29414;44.798;20.366;2023-11-21T06:02:19;27.67;;;21.00;;
43793;SDS011;29414;44.798;20.366;2023-11-21T06:06:19;22.45;;;18.20;;
43793;SDS011;29414;44.798;20.366;2023-11-21T06:10:22;26.83;;;19.67;;
43793;SDS011;29414;44.798;20.366;2023-11-21T06:14:23;28.30;;;19.50;;
43793;SDS011;29414;44.798;20.366;2023-11-21T06:18:24;26.33;;;19.33;;
43793;SDS011;29414;44.798;20.366;2023-11-21T06:22:24;21.67;;;16.47;;
43793;SDS011;29414;44.798;20.366;2023-11-21T06:26:24;23.70;;;16.90;;
43793;SDS011;29414;44.798;20.366;2023-11-21T06:30:25;26.57;;;18.47;;
43793;SDS011;29414;44.798;20.366;2023-11-21T06:34:26;27.67;;;17.93;;
43793;SDS011;29414;44.798;20.366;2023-11-21T06:38:28;25.97;;;19.63;;
43793;SDS011;29414;44.798;20.366;2023-11-21T06:42:30;30.27;;;21.30;;
43793;SDS011;29414;44.798;20.366;2023-11-21T06:46:30;29.77;;;20.30;;
43793;SDS011;29414;44.798;20.366;2023-11-21T06:50:30;26.97;;;20.20;;
43793;SDS011;29414;44.798;20.366;2023-11-21T06:54:31;28.80;;;20.47;;
43793;SDS011;29414;44.798;20.366;2023-11-21T06:58:32;29.47;;;20.13;;
43793;SDS011;29414;44.798;20.366;2023-11-21T07:02:32;27.67;;;20.27;;
43793;SDS011;29414;44.798;20.366;2023-11-21T07:06:32;26.90;;;18.50;;
43793;SDS011;29414;44.798;20.366;2023-11-21T07:10:33;20.27;;;16.17;;
43793;SDS011;29414;44.798;20.366;2023-11-21T07:14:34;24.10;;;18.03;;
43793;SDS011;29414;44.798;20.366;2023-11-21T07:18:34;28.07;;;21.03;;
43793;SDS011;29414;44.798;20.366;2023-11-21T07:22:35;32.93;;;19.80;;
43793;SDS011;29414;44.798;20.366;2023-11-21T07:26:35;27.67;;;18.93;;
43793;SDS011;29414;44.798;20.366;2023-11-21T07:30:35;25.13;;;18.47;;
43793;SDS011;29414;44.798;20.366;2023-11-21T07:34:36;24.77;;;18.37;;
43793;SDS011;29414;44.798;20.366;2023-11-21T07:38:36;33.23;;;17.77;;
43793;SDS011;29414;44.798;20.366;2023-11-21T07:42:37;29.90;;;18.70;;
43793;SDS011;29414;44.798;20.366;2023-11-21T07:46:37;21.50;;;15.67;;
43793;SDS011;29414;44.798;20.366;2023-11-21T07:50:37;26.83;;;16.57;;
43793;SDS011;29414;44.798;20.366;2023-11-21T07:54:38;23.20;;;17.40;;
43793;SDS011;29414;44.798;20.366;2023-11-21T07:58:38;21.87;;;15.80;;
43793;SDS011;29414;44.798;20.366;2023-11-21T08:02:39;25.13;;;18.23;;
43793;SDS011;29414;44.798;20.366;2023-11-21T08:06:42;17.90;;;14.40;;
43793;SDS011;29414;44.798;20.366;2023-11-21T08:10:42;15.40;;;12.27;;
43793;SDS011;29414;44.798;20.366;2023-11-21T08:14:42;14.57;;;11.37;;
43793;SDS011;29414;44.798;20.366;2023-11-21T08:18:44;21.50;;;15.67;;
43793;SDS011;29414;44.798;20.366;2023-11-21T08:22:44;22.57;;;14.53;;
43793;SDS011;29414;44.798;20.366;2023-11-21T08:26:44;16.50;;;11.40;;
43793;SDS011;29414;44.798;20.366;2023-11-21T08:30:45;17.97;;;11.20;;
43793;SDS011;29414;44.798;20.366;2023-11-21T08:34:45;12.70;;;9.77;;
43793;SDS011;29414;44.798;20.366;2023-11-21T08:38:45;12.03;;;9.60;;
43793;SDS011;29414;44.798;20.366;2023-11-21T08:42:45;13.60;;;9.50;;
43793;SDS011;29414;44.798;20.366;2023-11-21T08:46:46;14.77;;;10.40;;
43793;SDS011;29414;44.798;20.366;2023-11-21T08:50:46;12.20;;;9.57;;
43793;SDS011;29414;44.798;20.366;2023-11-21T08:54:47;16.17;;;12.10;;
43793;SDS011;29414;44.798;20.366;2023-11-21T08:58:47;17.47;;;12.37;;
43793;SDS011;29414;44.798;20.366;2023-11-21T09:02:48;13.73;;;10.33;;
43793;SDS011;29414;44.798;20.366;2023-11-21T09:06:48;18.60;;;12.37;;
43793;SDS011;29414;44.798;20.366;2023-11-21T09:10:49;18.30;;;12.67;;
43793;SDS011;29414;44.798;20.366;2023-11-21T09:14:49;23.53;;;15.43;;
43793;SDS011;29414;44.798;20.366;2023-11-21T09:18:50;21.13;;;14.10;;
43793;SDS011;29414;44.798;20.366;2023-11-21T09:22:50;21.40;;;15.57;;
43793;SDS011;29414;44.798;20.366;2023-11-21T09:26:50;21.90;;;15.47;;
43793;SDS011;29414;44.798;20.366;2023-11-21T09:30:50;25.97;;;18.00;;
43793;SDS011;29414;44.798;20.366;2023-11-21T09:34:51;24.33;;;15.67;;
43793;SDS011;29414;44.798;20.366;2023-11-21T09:38:52;21.30;;;15.60;;
43793;SDS011;29414;44.798;20.366;2023-11-21T09:42:56;24.83;;;16.73;;
43793;SDS011;29414;44.798;20.366;2023-11-21T09:46:56;24.73;;;16.77;;
43793;SDS011;29414;44.798;20.366;2023-11-21T09:50:59;26.63;;;17.60;;
43793;SDS011;29414;44.798;20.366;2023-11-21T09:54:59;28.67;;;19.17;;
43793;SDS011;29414;44.798;20.366;2023-11-21T09:59:01;24.73;;;17.70;;
43793;SDS011;29414;44.798;20.366;2023-11-21T10:03:04;29.07;;;18.47;;
43793;SDS011;29414;44.798;20.366;2023-11-21T10:07:04;30.17;;;21.50;;
43793;SDS011;29414;44.798;20.366;2023-11-21T10:11:09;24.73;;;19.90;;
43793;SDS011;29414;44.798;20.366;2023-11-21T10:15:11;32.63;;;22.67;;
43793;SDS011;29414;44.798;20.366;2023-11-21T10:19:15;27.50;;;22.27;;
43793;SDS011;29414;44.798;20.366;2023-11-21T10:23:18;26.40;;;22.10;;
43793;SDS011;29414;44.798;20.366;2023-11-21T10:27:18;27.80;;;20.53;;
43793;SDS011;29414;44.798;20.366;2023-11-21T10:31:19;25.00;;;20.17;;
43793;SDS011;29414;44.798;20.366;2023-11-21T10:35:19;30.38;;;22.38;;
43793;SDS011;29414;44.798;20.366;2023-11-21T10:39:20;35.23;;;27.07;;
43793;SDS011;29414;44.798;20.366;2023-11-21T10:43:26;44.60;;;33.60;;
43793;SDS011;29414;44.798;20.366;2023-11-21T10:47:26;38.43;;;32.63;;
43793;SDS011;29414;44.798;20.366;2023-11-21T10:51:27;40.10;;;32.93;;
43793;SDS011;29414;44.798;20.366;2023-11-21T10:55:28;43.40;;;28.70;;
43793;SDS011;29414;44.798;20.366;2023-11-21T10:59:29;32.63;;;26.73;;
43793;SDS011;29414;44.798;20.366;2023-11-21T11:03:31;33.60;;;27.17;;
43793;SDS011;29414;44.798;20.366;2023-11-21T11:07:33;36.80;;;25.93;;
43793;SDS011;29414;44.798;20.366;2023-11-21T11:11:35;35.00;;;26.50;;
43793;SDS011;29414;44.798;20.366;2023-11-21T11:15:39;30.33;;;25.13;;
43793;SDS011;29414;44.798;20.366;2023-11-21T11:19:39;35.77;;;27.83;;
43793;SDS011;29414;44.798;20.366;2023-11-21T11:27:54;30.00;;;24.53;;
43793;SDS011;29414;44.798;20.366;2023-11-21T11:40:06;33.07;;;24.83;;
43793;SDS011;29414;44.798;20.366;2023-11-21T11:44:09;38.40;;;24.73;;
43793;SDS011;29414;44.798;20.366;2023-11-21T11:48:26;35.33;;;29.53;;
43793;SDS011;29414;44.798;20.366;2023-11-21T11:56:34;38.23;;;27.33;;
43793;SDS011;29414;44.798;20.366;2023-11-21T12:00:36;29.73;;;25.60;;
43793;SDS011;29414;44.798;20.366;2023-11-21T12:04:40;31.87;;;25.33;;
43793;SDS011;29414;44.798;20.366;2023-11-21T12:08:41;37.17;;;27.23;;
43793;SDS011;29414;44.798;20.366;2023-11-21T12:12:42;31.43;;;25.67;;
43793;SDS011;29414;44.798;20.366;2023-11-21T12:16:43;35.20;;;28.27;;
43793;SDS011;29414;44.798;20.366;2023-11-21T12:20:44;34.80;;;27.10;;
43793;SDS011;29414;44.798;20.366;2023-11-21T12:24:47;34.80;;;26.80;;
43793;SDS011;29414;44.798;20.366;2023-11-21T12:28:51;34.80;;;29.13;;
43793;SDS011;29414;44.798;20.366;2023-11-21T12:32:52;34.07;;;28.33;;
43793;SDS011;29414;44.798;20.366;2023-11-21T12:36:53;35.10;;;29.03;;
43793;SDS011;29414;44.798;20.366;2023-11-21T12:40:54;41.33;;;29.97;;
43793;SDS011;29414;44.798;20.366;2023-11-21T12:49:17;39.97;;;32.20;;
43793;SDS011;29414;44.798;20.366;2023-11-21T12:53:18;40.97;;;31.20;;
43793;SDS011;29414;44.798;20.366;2023-11-21T12:57:19;39.77;;;31.47;;
43793;SDS011;29414;44.798;20.366;2023-11-21T13:01:20;37.43;;;30.60;;
43793;SDS011;29414;44.798;20.366;2023-11-21T13:05:23;37.10;;;29.60;;
43793;SDS011;29414;44.798;20.366;2023-11-21T13:09:24;35.33;;;27.23;;
43793;SDS011;29414;44.798;20.366;2023-11-21T13:13:25;33.03;;;26.93;;
43793;SDS011;29414;44.798;20.366;2023-11-21T13:17:27;35.47;;;29.17;;
43793;SDS011;29414;44.798;20.366;2023-11-21T13:21:28;35.67;;;27.63;;
43793;SDS011;29414;44.798;20.366;2023-11-21T13:25:29;34.03;;;27.00;;
43793;SDS011;29414;44.798;20.366;2023-11-21T13:29:31;35.03;;;26.80;;
43793;SDS011;29414;44.798;20.366;2023-11-21T13:33:31;46.94;;;29.18;;
43793;SDS011;29414;44.798;20.366;2023-11-21T13:37:33;34.20;;;27.77;;
43793;SDS011;29414;44.798;20.366;2023-11-21T13:41:34;32.03;;;27.63;;
43793;SDS011;29414;44.798;20.366;2023-11-21T13:45:35;35.80;;;27.43;;
43793;SDS011;29414;44.798;20.366;2023-11-21T13:49:36;38.17;;;29.73;;
43793;SDS011;29414;44.798;20.366;2023-11-21T13:53:40;35.47;;;27.53;;
43793;SDS011;29414;44.798;20.366;2023-11-21T13:57:42;35.07;;;26.60;;
43793;SDS011;29414;44.798;20.366;2023-11-21T14:01:49;37.50;;;28.33;;
43793;SDS011;29414;44.798;20.366;2023-11-21T14:05:53;37.37;;;28.13;;
43793;SDS011;29414;44.798;20.366;2023-11-21T14:09:55;35.30;;;29.27;;
43793;SDS011;29414;44.798;20.366;2023-11-21T14:13:56;32.87;;;27.07;;
43793;SDS011;29414;44.798;20.366;2023-11-21T14:17:56;28.77;;;24.83;;
43793;SDS011;29414;44.798;20.366;2023-11-21T14:21:56;30.30;;;23.60;;
43793;SDS011;29414;44.798;20.366;2023-11-21T14:25:56;28.17;;;22.77;;
43793;SDS011;29414;44.798;20.366;2023-11-21T14:29:58;30.53;;;24.00;;
43793;SDS011;29414;44.798;20.366;2023-11-21T14:33:59;32.93;;;25.17;;
43793;SDS011;29414;44.798;20.366;2023-11-21T14:38:01;35.67;;;26.63;;
43793;SDS011;29414;44.798;20.366;2023-11-21T14:42:04;34.30;;;26.60;;
43793;SDS011;29414;44.798;20.366;2023-11-21T14:46:06;32.50;;;26.53;;
43793;SDS011;29414;44.798;20.366;2023-11-21T14:50:10;41.83;;;32.67;;
43793;SDS011;29414;44.798;20.366;2023-11-21T14:54:39;34.97;;;28.13;;
43793;SDS011;29414;44.798;20.366;2023-11-21T14:59:00;37.37;;;30.73;;
43793;SDS011;29414;44.798;20.366;2023-11-21T15:03:06;39.93;;;31.80;;
43793;SDS011;29414;44.798;20.366;2023-11-21T15:07:09;41.10;;;33.43;;
43793;SDS011;29414;44.798;20.366;2023-11-21T15:11:11;42.93;;;34.47;;
43793;SDS011;29414;44.798;20.366;2023-11-21T15:15:16;40.30;;;32.27;;
43793;SDS011;29414;44.798;20.366;2023-11-21T15:19:18;36.67;;;29.07;;
43793;SDS011;29414;44.798;20.366;2023-11-21T15:23:23;37.78;;;30.55;;
43793;SDS011;29414;44.798;20.366;2023-11-21T15:27:24;38.23;;;29.43;;
43793;SDS011;29414;44.798;20.366;2023-11-21T15:31:24;34.10;;;28.73;;
43793;SDS011;29414;44.798;20.366;2023-11-21T15:35:24;35.93;;;29.23;;
43793;SDS011;29414;44.798;20.366;2023-11-21T15:39:27;31.40;;;26.60;;
43793;SDS011;29414;44.798;20.366;2023-11-21T15:43:30;29.87;;;25.67;;
43793;SDS011;29414;44.798;20.366;2023-11-21T15:47:31;33.83;;;28.93;;
43793;SDS011;29414;44.798;20.366;2023-11-21T15:51:31;32.50;;;27.90;;
43793;SDS011;29414;44.798;20.366;2023-11-21T15:55:32;29.63;;;24.50;;
43793;SDS011;29414;44.798;20.366;2023-11-21T15:59:34;28.90;;;25.47;;
43793;SDS011;29414;44.798;20.366;2023-11-21T16:03:34;35.30;;;28.23;;
43793;SDS011;29414;44.798;20.366;2023-11-21T16:07:34;35.97;;;30.07;;
43793;SDS011;29414;44.798;20.366;2023-11-21T16:11:36;37.07;;;31.30;;
43793;SDS011;29414;44.798;20.366;2023-11-21T16:15:36;37.17;;;32.63;;
43793;SDS011;29414;44.798;20.366;2023-11-21T16:19:38;41.27;;;34.80;;
43793;SDS011;29414;44.798;20.366;2023-11-21T16:23:38;37.07;;;32.97;;
43793;SDS011;29414;44.798;20.366;2023-11-21T16:27:39;38.00;;;33.47;;
43793;SDS011;29414;44.798;20.366;2023-11-21T16:31:39;36.50;;;32.43;;
43793;SDS011;29414;44.798;20.366;2023-11-21T16:35:40;34.60;;;30.23;;
43793;SDS011;29414;44.798;20.366;2023-11-21T16:39:41;34.73;;;28.60;;
43793;SDS011;29414;44.798;20.366;2023-11-21T16:43:41;31.97;;;28.47;;
43793;SDS011;29414;44.798;20.366;2023-11-21T16:47:42;32.10;;;28.00;;
43793;SDS011;29414;44.798;20.366;2023-11-21T16:51:42;31.80;;;28.00;;
43793;SDS011;29414;44.798;20.366;2023-11-21T16:55:43;30.57;;;27.27;;
43793;SDS011;29414;44.798;20.366;2023-11-21T16:59:43;31.07;;;25.23;;
43793;SDS011;29414;44.798;20.366;2023-11-21T17:03:44;28.27;;;24.67;;
43793;SDS011;29414;44.798;20.366;2023-11-21T17:07:47;29.70;;;22.63;;
43793;SDS011;29414;44.798;20.366;2023-11-21T17:11:48;23.43;;;20.83;;
43793;SDS011;29414;44.798;20.366;2023-11-21T17:15:49;24.80;;;22.30;;
43793;SDS011;29414;44.798;20.366;2023-11-21T17:19:49;28.27;;;21.93;;
43793;SDS011;29414;44.798;20.366;2023-11-21T17:23:49;25.37;;;21.13;;
43793;SDS011;29414;44.798;20.366;2023-11-21T17:27:49;22.57;;;20.27;;
43793;SDS011;29414;44.798;20.366;2023-11-21T17:31:51;22.50;;;19.27;;
43793;SDS011;29414;44.798;20.366;2023-11-21T17:35:51;21.57;;;19.27;;
43793;SDS011;29414;44.798;20.366;2023-11-21T17:39:51;20.00;;;17.87;;
43793;SDS011;29414;44.798;20.366;2023-11-21T17:43:52;20.20;;;18.13;;
43793;SDS011;29414;44.798;20.366;2023-11-21T17:47:53;18.40;;;16.50;;
43793;SDS011;29414;44.798;20.366;2023-11-21T17:51:53;19.60;;;16.33;;
43793;SDS011;29414;44.798;20.366;2023-11-21T17:55:54;18.67;;;16.67;;
43793;SDS011;29414;44.798;20.366;2023-11-21T17:59:54;19.87;;;15.73;;
43793;SDS011;29414;44.798;20.366;2023-11-21T18:03:55;20.07;;;16.50;;
43793;SDS011;29414;44.798;20.366;2023-11-21T18:07:55;19.17;;;16.87;;
43793;SDS011;29414;44.798;20.366;2023-11-21T18:11:55;21.50;;;17.14;;
43793;SDS011;29414;44.798;20.366;2023-11-21T18:15:56;17.43;;;15.53;;
43793;SDS011;29414;44.798;20.366;2023-11-21T18:19:56;17.37;;;15.20;;
43793;SDS011;29414;44.798;20.366;2023-11-21T18:23:56;17.57;;;15.67;;
43793;SDS011;29414;44.798;20.366;2023-11-21T18:27:56;18.92;;;14.74;;
43793;SDS011;29414;44.798;20.366;2023-11-21T18:31:57;17.50;;;15.03;;
43793;SDS011;29414;44.798;20.366;2023-11-21T18:35:57;15.70;;;14.07;;
43793;SDS011;29414;44.798;20.366;2023-11-21T18:39:57;18.20;;;15.03;;
43793;SDS011;29414;44.798;20.366;2023-11-21T18:43:57;17.17;;;15.10;;
43793;SDS011;29414;44.798;20.366;2023-11-21T18:47:58;20.90;;;15.80;;
43793;SDS011;29414;44.798;20.366;2023-11-21T18:51:58;20.63;;;16.73;;
43793;SDS011;29414;44.798;20.366;2023-11-21T18:55:58;18.03;;;15.83;;
43793;SDS011;29414;44.798;20.366;2023-11-21T18:59:59;19.83;;;17.73;;
43793;SDS011;29414;44.798;20.366;2023-11-21T19:03:59;21.17;;;17.93;;
43793;SDS011;29414;44.798;20.366;2023-11-21T19:08:00;21.20;;;17.17;;
43793;SDS011;29414;44.798;20.366;2023-11-21T19:12:01;18.87;;;16.87;;
43793;SDS011;29414;44.798;20.366;2023-11-21T19:16:02;20.67;;;16.90;;
43793;SDS011;29414;44.798;20.366;2023-11-21T19:20:03;19.93;;;17.93;;
43793;SDS011;29414;44.798;20.366;2023-11-21T19:24:04;18.80;;;16.53;;
43793;SDS011;29414;44.798;20.366;2023-11-21T19:28:04;21.10;;;17.73;;
43793;SDS011;29414;44.798;20.366;2023-11-21T19:32:04;20.53;;;17.50;;
43793;SDS011;29414;44.798;20.366;2023-11-21T19:36:05;17.93;;;16.17;;
43793;SDS011;29414;44.798;20.366;2023-11-21T19:40:05;18.00;;;16.17;;
43793;SDS011;29414;44.798;20.366;2023-11-21T19:44:06;18.93;;;15.97;;
43793;SDS011;29414;44.798;20.366;2023-11-21T19:48:06;18.53;;;15.27;;
43793;SDS011;29414;44.798;20.366;2023-11-21T19:52:08;15.57;;;13.97;;
43793;SDS011;29414;44.798;20.366;2023-11-21T19:56:08;17.67;;;15.57;;
43793;SDS011;29414;44.798;20.366;2023-11-21T20:00:09;16.87;;;14.97;;
43793;SDS011;29414;44.798;20.366;2023-11-21T20:04:14;15.77;;;14.17;;
43793;SDS011;29414;44.798;20.366;2023-11-21T20:08:14;17.43;;;15.33;;
43793;SDS011;29414;44.798;20.366;2023-11-21T20:12:15;18.80;;;15.57;;
43793;SDS011;29414;44.798;20.366;2023-11-21T20:16:15;17.10;;;15.43;;
43793;SDS011;29414;44.798;20.366;2023-11-21T20:20:16;16.40;;;14.67;;
43793;SDS011;29414;44.798;20.366;2023-11-21T20:24:16;15.63;;;14.03;;
43793;SDS011;29414;44.798;20.366;2023-11-21T20:28:16;17.90;;;15.10;;
43793;SDS011;29414;44.798;20.366;2023-11-21T20:32:16;18.43;;;15.37;;
43793;SDS011;29414;44.798;20.366;2023-11-21T20:36:17;15.88;;;14.24;;
43793;SDS011;29414;44.798;20.366;2023-11-21T20:40:17;17.60;;;15.40;;
43793;SDS011;29414;44.798;20.366;2023-11-21T20:44:18;16.80;;;14.87;;
43793;SDS011;29414;44.798;20.366;2023-11-21T20:48:19;15.90;;;14.30;;
43793;SDS011;29414;44.798;20.366;2023-11-21T20:52:19;17.00;;;15.03;;
43793;SDS011;29414;44.798;20.366;2023-11-21T20:56:19;16.63;;;14.93;;
43793;SDS011;29414;44.798;20.366;2023-11-21T21:00:20;17.17;;;13.97;;
43793;SDS011;29414;44.798;20.366;2023-11-21T21:04:21;15.50;;;13.80;;
43793;SDS011;29414;44.798;20.366;2023-11-21T21:08:22;18.33;;;16.37;;
43793;SDS011;29414;44.798;20.366;2023-11-21T21:12:25;21.10;;;18.47;;
43793;SDS011;29414;44.798;20.366;2023-11-21T21:16:26;23.20;;;19.90;;
43793;SDS011;29414;44.798;20.366;2023-11-21T21:20:26;22.80;;;20.47;;
43793;SDS011;29414;44.798;20.366;2023-11-21T21:24:27;25.80;;;20.77;;
43793;SDS011;29414;44.798;20.366;2023-11-21T21:28:28;23.73;;;20.37;;
43793;SDS011;29414;44.798;20.366;2023-11-21T21:32:28;23.30;;;20.90;;
43793;SDS011;29414;44.798;20.366;2023-11-21T21:36:28;20.87;;;18.03;;
43793;SDS011;29414;44.798;20.366;2023-11-21T21:40:29;21.20;;;18.83;;
43793;SDS011;29414;44.798;20.366;2023-11-21T21:44:31;20.60;;;18.40;;
43793;SDS011;29414;44.798;20.366;2023-11-21T21:48:33;18.90;;;16.93;;
43793;SDS011;29414;44.798;20.366;2023-11-21T21:52:35;19.17;;;17.17;;
43793;SDS011;29414;44.798;20.366;2023-11-21T21:56:36;19.80;;;17.03;;
43793;SDS011;29414;44.798;20.366;2023-11-21T22:00:36;17.60;;;15.30;;
43793;SDS011;29414;44.798;20.366;2023-11-21T22:04:36;16.77;;;15.03;;
43793;SDS011;29414;44.798;20.366;2023-11-21T22:08:39;16.07;;;13.73;;
43793;SDS011;29414;44.798;20.366;2023-11-21T22:12:40;16.37;;;14.47;;
43793;SDS011;29414;44.798;20.366;2023-11-21T22:16:40;16.33;;;14.47;;
43793;SDS011;29414;44.798;20.366;2023-11-21T22:20:41;18.37;;;15.00;;
43793;SDS011;29414;44.798;20.366;2023-11-21T22:24:41;18.37;;;16.47;;
43793;SDS011;29414;44.798;20.366;2023-11-21T22:28:42;18.03;;;16.13;;
43793;SDS011;29414;44.798;20.366;2023-11-21T22:32:42;20.27;;;16.23;;
43793;SDS011;29414;44.798;20.366;2023-11-21T22:36:42;16.97;;;14.63;;
43793;SDS011;29414;44.798;20.366;2023-11-21T22:40:43;16.90;;;15.07;;
43793;SDS011;29414;44.798;20.366;2023-11-21T22:44:46;15.93;;;13.80;;
43793;SDS011;29414;44.798;20.366;2023-11-21T22:48:47;15.70;;;14.20;;
43793;SDS011;29414;44.798;20.366;2023-11-21T22:52:49;13.50;;;12.13;;
43793;SDS011;29414;44.798;20.366;2023-11-21T22:56:51;12.30;;;11.20;;
43793;SDS011;29414;44.798;20.366;2023-11-21T23:00:53;13.17;;;11.47;;
43793;SDS011;29414;44.798;20.366;2023-11-21T23:04:57;11.27;;;9.93;;
43793;SDS011;29414;44.798;20.366;2023-11-21T23:08:57;12.07;;;10.13;;
43793;SDS011;29414;44.798;20.366;2023-11-21T23:12:57;13.10;;;10.76;;
43793;SDS011;29414;44.798;20.366;2023-11-21T23:16:58;16.03;;;12.37;;
43793;SDS011;29414;44.798;20.366;2023-11-21T23:20:58;13.43;;;10.90;;
43793;SDS011;29414;44.798;20.366;2023-11-21T23:24:59;14.03;;;12.00;;
43793;SDS011;29414;44.798;20.366;2023-11-21T23:29:00;13.77;;;11.87;;